Time;durP1;ratioP1;P1;durP2;ratioP2;P2;SDS_P1;SDS_P2;PMS_P1;PMS_P2;Temp;Humidity;BMP_temperature;BMP_pressure;BME280_temperature;BME280_humidity;BME280_pressure;Samples;Min_cycle;Max_cycle;Signal;HPM_P1;HPM_P2
2022/01/29 00:00:26;;;;;;;1.08;0.90;;;21.80;54.40;;;;;;5056815;28;20045;-76
2022/01/29 00:02:52;;;;;;;1.38;1.10;;;21.70;54.70;;;;;;5055971;28;20052;-76
2022/01/29 00:05:19;;;;;;;1.00;0.80;;;21.70;54.00;;;;;;5056776;28;20145;-77
2022/01/29 00:07:45;;;;;;;2.13;0.73;;;21.60;53.50;;;;;;5056733;28;20045;-77
2022/01/29 00:10:12;;;;;;;0.70;0.70;;;21.60;54.20;;;;;;5056319;28;20058;-76
2022/01/29 00:12:39;;;;;;;0.80;0.80;;;21.50;54.60;;;;;;5056574;28;20037;-77
2022/01/29 00:15:06;;;;;;;0.75;0.75;;;21.60;54.20;;;;;;5056665;28;20041;-76
2022/01/29 00:17:32;;;;;;;0.80;0.80;;;21.60;54.40;;;;;;5056464;28;20049;-76
2022/01/29 00:19:58;;;;;;;1.42;1.17;;;21.50;54.30;;;;;;5056730;28;20064;-77
2022/01/29 00:22:25;;;;;;;2.35;1.13;;;21.50;54.30;;;;;;5056469;28;20037;-77
2022/01/29 00:24:51;;;;;;;1.75;1.27;;;21.50;53.00;;;;;;5056367;28;20037;-76
2022/01/29 00:27:20;;;;;;;1.65;1.10;;;21.50;54.20;;;;;;5056369;28;20150;-77
2022/01/29 00:29:46;;;;;;;1.35;1.10;;;21.40;53.20;;;;;;5055954;28;20032;-77
2022/01/29 00:32:13;;;;;;;0.80;0.80;;;21.40;54.20;;;;;;5056277;28;20033;-76
2022/01/29 00:34:39;;;;;;;1.92;1.25;;;21.40;54.10;;;;;;5056014;28;20042;-77
2022/01/29 00:37:06;;;;;;;1.65;0.93;;;21.50;54.10;;;;;;5056325;28;20037;-77
2022/01/29 00:39:32;;;;;;;1.75;1.30;;;21.40;54.10;;;;;;5056163;28;20049;-76
2022/01/29 00:41:58;;;;;;;1.65;1.00;;;21.30;54.20;;;;;;5056423;28;20041;-76
2022/01/29 00:44:24;;;;;;;1.00;0.90;;;21.30;54.10;;;;;;5056262;28;20041;-77
2022/01/29 00:46:51;;;;;;;1.45;1.00;;;21.30;54.20;;;;;;5056102;28;20049;-76
2022/01/29 00:49:17;;;;;;;1.55;1.00;;;21.30;54.20;;;;;;5056410;28;20041;-76
2022/01/29 00:51:43;;;;;;;1.35;1.20;;;21.40;54.10;;;;;;5056092;28;20037;-78
2022/01/29 00:54:09;;;;;;;1.35;1.23;;;21.30;54.10;;;;;;5056245;28;20097;-76
2022/01/29 00:56:36;;;;;;;1.65;1.25;;;21.40;53.90;;;;;;5056153;28;20045;-76
2022/01/29 00:59:02;;;;;;;2.50;1.05;;;21.40;53.80;;;;;;5059621;28;20068;-76
2022/01/29 01:01:29;;;;;;;0.93;0.85;;;21.40;53.70;;;;;;5060201;28;20041;-76
2022/01/29 01:03:55;;;;;;;1.50;1.20;;;21.40;53.20;;;;;;5060060;28;20032;-76
2022/01/29 01:06:22;;;;;;;0.80;0.80;;;21.40;53.30;;;;;;5059846;28;20049;-76
2022/01/29 01:08:48;;;;;;;1.38;1.23;;;21.50;53.30;;;;;;5060081;28;20087;-75
2022/01/29 01:11:14;;;;;;;2.75;1.13;;;21.50;52.40;;;;;;5059814;28;20056;-76
2022/01/29 01:13:40;;;;;;;2.25;1.10;;;21.70;53.40;;;;;;5059596;28;20038;-77
2022/01/29 01:16:06;;;;;;;2.33;1.00;;;21.60;52.80;;;;;;5059036;28;20053;-76
2022/01/29 01:18:33;;;;;;;1.27;1.10;;;21.70;53.30;;;;;;5059843;28;20041;-77
2022/01/29 01:20:59;;;;;;;1.65;1.00;;;21.60;52.10;;;;;;5059767;28;20051;-76
2022/01/29 01:23:25;;;;;;;0.90;0.80;;;21.50;53.10;;;;;;5059705;28;20096;-76
2022/01/29 01:25:51;;;;;;;1.63;1.33;;;21.50;53.20;;;;;;5059597;28;20076;-76
2022/01/29 01:28:17;;;;;;;2.42;1.10;;;21.50;52.70;;;;;;5059502;28;20040;-75
2022/01/29 01:30:44;;;;;;;1.35;0.82;;;21.50;52.80;;;;;;5059223;28;20037;-76
2022/01/29 01:33:10;;;;;;;0.82;0.80;;;21.50;52.20;;;;;;5059418;28;20038;-76
2022/01/29 01:35:47;;;;;;;1.45;0.95;;;21.40;53.10;;;;;;5042193;28;20041;-77
2022/01/29 01:38:21;;;;;;;1.33;1.00;;;21.40;53.40;;;;;;5059188;28;20041;-76
2022/01/29 01:40:53;;;;;;;1.40;1.27;;;21.40;53.10;;;;;;5059087;28;20060;-76
2022/01/29 01:43:19;;;;;;;1.33;1.05;;;21.30;53.30;;;;;;5059152;28;20046;-76
2022/01/29 01:45:45;;;;;;;1.73;1.13;;;21.40;53.00;;;;;;5059351;28;20067;-77
2022/01/29 01:48:11;;;;;;;1.48;1.02;;;21.40;53.10;;;;;;5059283;28;20045;-76
2022/01/29 01:50:37;;;;;;;0.98;0.82;;;21.50;53.10;;;;;;5059327;28;20038;-77
2022/01/29 01:53:04;;;;;;;0.80;0.80;;;21.60;52.50;;;;;;5059216;28;20036;-77
2022/01/29 01:55:32;;;;;;;2.28;1.15;;;21.60;52.50;;;;;;5059042;28;20102;-76
2022/01/29 01:57:58;;;;;;;1.95;1.20;;;21.50;52.80;;;;;;5059256;28;20052;-76
2022/01/29 02:00:28;;;;;;;1.73;1.58;;;21.50;52.80;;;;;;5059154;28;20111;-76
2022/01/29 02:02:54;;;;;;;2.60;1.50;;;21.50;52.90;;;;;;5059061;28;20033;-76
2022/01/29 02:05:21;;;;;;;2.00;0.95;;;21.40;53.00;;;;;;5058794;28;20182;-77
2022/01/29 02:07:47;;;;;;;1.25;1.15;;;21.50;53.10;;;;;;5058371;28;20041;-77
2022/01/29 02:10:14;;;;;;;1.35;1.00;;;21.30;53.20;;;;;;5058547;28;20053;-76
2022/01/29 02:13:02;;;;;;;1.38;1.20;;;21.40;53.20;;;;;;5058930;28;20119;-76
2022/01/29 02:15:30;;;;;;;1.20;1.00;;;21.40;53.30;;;;;;5058654;28;20076;-76
2022/01/29 02:17:56;;;;;;;1.83;1.10;;;21.20;53.60;;;;;;5058568;28;20041;-76
2022/01/29 02:20:25;;;;;;;2.60;1.17;;;21.30;53.50;;;;;;5058775;28;20041;-77
2022/01/29 02:22:52;;;;;;;1.23;1.13;;;21.40;53.40;;;;;;5058663;28;20071;-76
2022/01/29 02:25:39;;;;;;;1.10;1.00;;;21.50;53.50;;;;;;5058364;28;20045;-77
2022/01/29 02:28:21;;;;;;;2.00;1.15;;;21.40;53.20;;;;;;5058776;28;20038;-76
2022/01/29 02:30:51;;;;;;;2.95;1.45;;;21.40;53.10;;;;;;5058358;28;20035;-76
2022/01/29 02:33:17;;;;;;;1.30;1.00;;;21.40;53.00;;;;;;5058641;28;20038;-76
2022/01/29 02:35:49;;;;;;;1.05;1.05;;;21.60;53.10;;;;;;5058336;28;20041;-76
2022/01/29 02:38:18;;;;;;;1.17;0.93;;;21.50;53.20;;;;;;5058331;28;20080;-77
2022/01/29 02:40:49;;;;;;;1.55;1.23;;;21.50;53.10;;;;;;5058438;28;20085;-77
2022/01/29 02:43:18;;;;;;;1.50;0.88;;;21.40;53.10;;;;;;5058095;28;20068;-76
2022/01/29 02:45:46;;;;;;;2.90;1.35;;;21.40;53.00;;;;;;5057797;28;20041;-76
2022/01/29 02:48:13;;;;;;;1.75;1.20;;;21.50;53.00;;;;;;5058194;28;20037;-77
2022/01/29 02:50:40;;;;;;;1.90;1.38;;;21.30;53.00;;;;;;5058265;28;20063;-76
2022/01/29 02:53:07;;;;;;;1.27;1.02;;;21.40;53.10;;;;;;5037725;28;20099;-76
2022/01/29 02:55:34;;;;;;;1.17;1.08;;;21.30;53.30;;;;;;5037877;28;20033;-76
2022/01/29 02:58:00;;;;;;;2.00;1.10;;;21.40;53.10;;;;;;5038086;28;20048;-77
2022/01/29 03:00:26;;;;;;;3.17;1.25;;;21.40;53.30;;;;;;5038172;28;20048;-76
2022/01/29 03:02:53;;;;;;;1.65;1.08;;;21.20;53.10;;;;;;5038189;28;20069;-77
2022/01/29 03:05:19;;;;;;;2.10;1.38;;;21.10;53.30;;;;;;5037613;28;20069;-77
2022/01/29 03:07:46;;;;;;;1.33;1.10;;;21.30;53.30;;;;;;5037862;28;20100;-76
2022/01/29 03:10:12;;;;;;;1.90;1.00;;;21.20;53.40;;;;;;5037732;28;20048;-76
2022/01/29 03:12:40;;;;;;;1.58;1.00;;;21.10;53.40;;;;;;5037464;28;20117;-76
2022/01/29 03:15:08;;;;;;;3.67;1.50;;;21.10;53.50;;;;;;5037616;28;20034;-75
2022/01/29 03:17:34;;;;;;;1.65;0.93;;;21.10;53.30;;;;;;5037756;28;20041;-76
2022/01/29 03:20:01;;;;;;;0.75;0.75;;;21.10;53.20;;;;;;5036928;28;20041;-75
2022/01/29 03:22:27;;;;;;;1.27;1.02;;;21.10;53.30;;;;;;5037724;28;20038;-76
2022/01/29 03:24:53;;;;;;;1.15;0.95;;;21.10;53.10;;;;;;5037535;28;20098;-76
2022/01/29 03:27:19;;;;;;;2.05;1.23;;;21.20;52.80;;;;;;5038593;28;20052;-76
2022/01/29 03:29:45;;;;;;;3.13;1.33;;;21.20;52.30;;;;;;5056195;28;20121;-76
2022/01/29 03:32:11;;;;;;;1.73;1.20;;;21.20;52.70;;;;;;5057475;28;20045;-76
2022/01/29 03:34:37;;;;;;;1.35;1.00;;;21.20;52.90;;;;;;5057142;28;20026;-76
2022/01/29 03:37:04;;;;;;;1.02;0.90;;;21.10;52.60;;;;;;5057192;28;20033;-77
2022/01/29 03:39:30;;;;;;;1.85;0.80;;;21.20;53.00;;;;;;5057304;28;20136;-76
2022/01/29 03:42:02;;;;;;;2.65;0.93;;;21.10;52.90;;;;;;5057091;28;20041;-76
2022/01/29 03:44:29;;;;;;;1.73;1.27;;;21.20;52.90;;;;;;5057150;28;20059;-76
2022/01/29 03:46:55;;;;;;;0.73;0.70;;;21.10;52.20;;;;;;5056918;28;20045;-76
2022/01/29 03:49:21;;;;;;;1.38;1.00;;;21.00;52.30;;;;;;5057037;28;20168;-76
2022/01/29 03:51:47;;;;;;;1.50;0.95;;;21.00;52.80;;;;;;5057005;28;20075;-76
2022/01/29 03:54:13;;;;;;;1.45;0.85;;;21.10;53.00;;;;;;5056897;28;20042;-76
2022/01/29 03:56:39;;;;;;;1.45;1.15;;;21.20;53.10;;;;;;5056742;28;20045;-77
2022/01/29 03:59:06;;;;;;;1.60;1.33;;;21.20;52.70;;;;;;5056993;28;20037;-76
2022/01/29 04:01:32;;;;;;;2.63;1.30;;;21.10;52.80;;;;;;5056690;28;20053;-76
2022/01/29 04:03:58;;;;;;;1.50;1.00;;;21.10;52.90;;;;;;5056938;28;20052;-76
2022/01/29 04:06:26;;;;;;;0.98;0.85;;;21.20;53.00;;;;;;5056423;28;20076;-76
2022/01/29 04:08:52;;;;;;;1.20;1.10;;;21.10;52.10;;;;;;5056376;28;20041;-76
2022/01/29 04:11:18;;;;;;;1.13;0.90;;;21.10;52.50;;;;;;5056344;28;20049;-77
2022/01/29 04:13:47;;;;;;;1.55;1.13;;;21.10;52.80;;;;;;5056773;28;20072;-77
2022/01/29 04:16:15;;;;;;;3.42;1.10;;;21.20;52.70;;;;;;5056306;28;20041;-76
2022/01/29 04:18:42;;;;;;;1.38;0.93;;;21.30;52.50;;;;;;5056422;28;20045;-76
2022/01/29 04:21:08;;;;;;;1.35;1.10;;;21.30;52.50;;;;;;5055841;28;20045;-76
2022/01/29 04:23:36;;;;;;;1.58;1.17;;;21.20;52.60;;;;;;5056315;28;20064;-77
2022/01/29 04:26:04;;;;;;;1.90;1.10;;;21.20;52.60;;;;;;5056302;28;20041;-76
2022/01/29 04:28:39;;;;;;;1.10;1.00;;;21.20;52.60;;;;;;5055835;28;20053;-76
2022/01/29 04:31:15;;;;;;;2.80;0.90;;;21.30;52.70;;;;;;5055816;28;20038;-76
2022/01/29 04:33:41;;;;;;;1.13;1.00;;;21.20;52.70;;;;;;5056542;28;20041;-77
2022/01/29 04:36:09;;;;;;;1.92;1.05;;;21.10;52.50;;;;;;5056187;28;20045;-77
2022/01/29 04:38:35;;;;;;;2.13;1.17;;;21.10;52.90;;;;;;5056429;28;20045;-76
2022/01/29 04:41:04;;;;;;;2.28;1.33;;;21.00;52.90;;;;;;5056436;28;20041;-76
2022/01/29 04:43:34;;;;;;;1.48;0.98;;;20.90;53.10;;;;;;5056090;28;20060;-76
2022/01/29 04:46:02;;;;;;;1.63;1.00;;;21.00;52.80;;;;;;5056166;28;20068;-75
2022/01/29 04:48:28;;;;;;;1.45;0.98;;;21.10;53.10;;;;;;5056426;28;20037;-77
2022/01/29 04:50:54;;;;;;;1.73;0.88;;;21.20;55.40;;;;;;5056214;28;20044;-77
2022/01/29 04:53:21;;;;;;;1.23;1.13;;;21.50;55.10;;;;;;5056332;28;20104;-75
2022/01/29 04:55:48;;;;;;;1.45;1.20;;;21.90;55.60;;;;;;5056090;28;20046;-76
2022/01/29 04:58:14;;;;;;;1.08;1.08;;;22.00;60.10;;;;;;5056207;28;20037;-76
2022/01/29 05:00:40;;;;;;;1.75;1.17;;;22.20;59.90;;;;;;5056169;28;20049;-76
2022/01/29 05:03:16;;;;;;;1.63;1.15;;;22.20;50.60;;;;;;5055725;28;20068;-76
2022/01/29 05:05:43;;;;;;;1.27;1.17;;;22.10;48.60;;;;;;5055245;28;20053;-76
2022/01/29 05:08:12;;;;;;;3.88;1.27;;;22.00;46.40;;;;;;5055588;28;20057;-74
2022/01/29 05:10:38;;;;;;;3.40;1.23;;;22.10;45.40;;;;;;5055200;28;20057;-73
2022/01/29 05:13:10;;;;;;;2.40;1.73;;;21.90;45.20;;;;;;5055380;28;20044;-73
2022/01/29 05:15:44;;;;;;;1.90;1.30;;;21.80;45.50;;;;;;5055354;28;20093;-73
2022/01/29 05:29:12;;;;;;;0.88;0.80;;;21.80;48.20;;;;;;5055258;28;20514;-74
2022/01/29 05:31:38;;;;;;;0.65;0.52;;;21.90;48.60;;;;;;5055404;28;20061;-74
2022/01/29 05:34:05;;;;;;;1.70;1.10;;;21.80;48.90;;;;;;5055390;28;20034;-73
2022/01/29 05:36:31;;;;;;;1.35;1.00;;;21.90;49.20;;;;;;5055277;28;20055;-73
2022/01/29 05:38:58;;;;;;;2.33;1.30;;;21.90;49.30;;;;;;5055187;28;20041;-72
2022/01/29 05:41:24;;;;;;;1.88;1.15;;;21.90;49.80;;;;;;5055240;28;20048;-71
2022/01/29 05:43:50;;;;;;;2.10;1.15;;;21.70;51.00;;;;;;5056602;28;20072;-72
2022/01/29 05:46:17;;;;;;;3.30;1.00;;;21.70;51.80;;;;;;5058598;28;20041;-72
2022/01/29 05:48:43;;;;;;;1.85;1.35;;;21.50;52.20;;;;;;5058713;28;20038;-74
2022/01/29 05:51:10;;;;;;;1.42;1.15;;;21.60;50.20;;;;;;5058817;28;20041;-73
2022/01/29 05:53:36;;;;;;;1.40;1.30;;;21.40;53.00;;;;;;5058653;28;20034;-73
2022/01/29 05:56:03;;;;;;;2.20;1.00;;;21.20;52.80;;;;;;5058571;28;20041;-72
2022/01/29 05:58:29;;;;;;;1.33;1.00;;;21.20;56.20;;;;;;5058653;28;20045;-73
2022/01/29 06:00:55;;;;;;;2.47;1.30;;;21.40;58.10;;;;;;5057756;28;20043;-73
2022/01/29 06:03:21;;;;;;;2.95;2.00;;;21.50;42.70;;;;;;5058457;28;20087;-71
2022/01/29 06:05:48;;;;;;;1.55;1.23;;;21.40;40.10;;;;;;5057767;28;20108;-72
2022/01/29 06:08:14;;;;;;;2.05;1.40;;;21.30;40.60;;;;;;5058073;28;20037;-71
2022/01/29 06:10:40;;;;;;;3.75;1.98;;;21.50;39.20;;;;;;5054874;28;20058;-71
2022/01/29 06:13:10;;;;;;;14.48;3.33;;;21.60;38.50;;;;;;5047141;28;20041;-71
2022/01/29 06:15:43;;;;;;;2.50;2.22;;;21.60;39.70;;;;;;5047868;28;20038;-70
2022/01/29 06:18:18;;;;;;;12.00;3.92;;;21.50;43.60;;;;;;5046720;28;20054;-70
2022/01/29 06:20:49;;;;;;;10.65;2.92;;;21.90;51.30;;;;;;5046716;28;20072;-71
2022/01/29 06:23:17;;;;;;;17.00;4.80;;;22.00;42.00;;;;;;5049257;28;20072;-71
2022/01/29 06:25:43;;;;;;;19.23;6.15;;;22.00;48.50;;;;;;5045866;28;20052;-72
2022/01/29 06:28:09;;;;;;;16.42;4.82;;;22.00;45.50;;;;;;5046672;28;20048;-74
2022/01/29 06:30:36;;;;;;;21.67;6.40;;;22.30;47.90;;;;;;5052039;28;20060;-72
2022/01/29 06:33:10;;;;;;;7.35;3.50;;;22.40;41.80;;;;;;5057900;28;20102;-71
2022/01/29 06:35:39;;;;;;;6.40;2.88;;;22.60;39.40;;;;;;5055441;28;20045;-70
2022/01/29 06:38:07;;;;;;;4.35;3.50;;;22.60;41.50;;;;;;5047950;28;20105;-71
2022/01/29 06:40:34;;;;;;;4.53;2.15;;;22.70;37.70;;;;;;5048806;28;20038;-70
2022/01/29 06:43:04;;;;;;;6.20;2.70;;;22.60;37.90;;;;;;5046493;28;20055;-71
2022/01/29 06:45:33;;;;;;;7.47;5.18;;;22.70;39.40;;;;;;5049045;28;20041;-71
2022/01/29 06:48:00;;;;;;;8.70;4.93;;;22.70;38.70;;;;;;5041716;28;20038;-72
2022/01/29 06:50:26;;;;;;;1.77;1.38;;;22.80;36.20;;;;;;5036640;28;20056;-73
2022/01/29 06:52:53;;;;;;;1.80;1.30;;;22.70;48.10;;;;;;5037712;28;20037;-71
2022/01/29 06:55:20;;;;;;;2.65;1.20;;;22.70;48.00;;;;;;5037281;28;20057;-75
2022/01/29 06:57:46;;;;;;;1.65;1.23;;;22.70;52.40;;;;;;5036897;28;20038;-73
2022/01/29 07:00:13;;;;;;;4.28;1.50;;;22.70;53.10;;;;;;5042985;28;20052;-73
2022/01/29 07:02:39;;;;;;;4.15;2.03;;;22.70;50.30;;;;;;5048171;28;20041;-73
2022/01/29 07:05:07;;;;;;;2.67;1.35;;;22.60;52.30;;;;;;5046180;28;20053;-73
2022/01/29 07:07:34;;;;;;;2.50;1.48;;;22.40;53.30;;;;;;5045150;28;20041;-74
2022/01/29 07:10:00;;;;;;;2.13;1.50;;;22.40;54.50;;;;;;5045053;28;20064;-74
2022/01/29 07:12:26;;;;;;;1.92;1.40;;;22.40;52.00;;;;;;5045387;28;20033;-74
2022/01/29 07:14:53;;;;;;;2.88;1.38;;;22.30;53.60;;;;;;5046246;28;20037;-74
2022/01/29 07:17:22;;;;;;;2.92;2.00;;;22.30;55.70;;;;;;5047264;28;20037;-74
2022/01/29 07:19:52;;;;;;;5.85;1.85;;;22.30;55.10;;;;;;5044414;28;20058;-73
2022/01/29 07:22:21;;;;;;;3.15;1.42;;;22.30;55.60;;;;;;5046695;28;20506;-75
2022/01/29 07:24:48;;;;;;;3.30;1.42;;;22.20;54.00;;;;;;5045669;28;20026;-74
2022/01/29 07:27:15;;;;;;;1.50;1.40;;;22.10;55.90;;;;;;5045377;28;20046;-74
2022/01/29 07:29:41;;;;;;;2.90;2.33;;;22.10;55.80;;;;;;5047333;28;20048;-72
2022/01/29 07:32:08;;;;;;;2.13;1.55;;;22.00;54.90;;;;;;5044367;28;20093;-73
2022/01/29 07:34:34;;;;;;;2.22;1.90;;;22.00;56.20;;;;;;5047193;28;20105;-73
2022/01/29 07:37:00;;;;;;;4.72;2.00;;;22.00;56.80;;;;;;5046729;28;20052;-73
2022/01/29 07:39:27;;;;;;;2.65;1.50;;;21.80;55.70;;;;;;5044042;28;20076;-73
2022/01/29 07:41:54;;;;;;;2.20;1.58;;;21.90;57.80;;;;;;5047425;28;20079;-73
2022/01/29 07:44:21;;;;;;;1.02;0.95;;;21.90;56.40;;;;;;5044909;28;20072;-73
2022/01/29 07:46:54;;;;;;;2.65;1.60;;;21.90;57.50;;;;;;5036342;28;20041;-72
2022/01/29 07:49:20;;;;;;;1.48;1.00;;;21.80;57.80;;;;;;5036706;28;20038;-73
2022/01/29 07:51:46;;;;;;;3.92;1.60;;;22.00;57.80;;;;;;5036632;28;20038;-72
2022/01/29 07:54:12;;;;;;;2.05;1.30;;;21.80;57.50;;;;;;5036372;28;20109;-73
2022/01/29 07:56:39;;;;;;;1.98;1.02;;;21.80;57.60;;;;;;5049860;28;20042;-73
2022/01/29 07:59:05;;;;;;;3.63;1.65;;;21.90;57.80;;;;;;5043468;28;20045;-72
2022/01/29 08:01:32;;;;;;;1.60;1.08;;;21.80;57.30;;;;;;5035846;28;20069;-71
2022/01/29 08:03:58;;;;;;;2.28;1.67;;;21.70;57.50;;;;;;5035989;28;20046;-73
2022/01/29 08:06:26;;;;;;;1.73;1.33;;;21.70;56.10;;;;;;5052352;28;20037;-71
2022/01/29 08:08:52;;;;;;;4.10;1.33;;;21.80;58.10;;;;;;5055324;28;20037;-71
2022/01/29 08:11:19;;;;;;;4.55;1.45;;;21.70;58.10;;;;;;5055673;28;20071;-70
2022/01/29 08:13:48;;;;;;;4.10;1.50;;;21.80;57.60;;;;;;5055307;28;20046;-71
2022/01/29 08:16:16;;;;;;;1.75;1.52;;;21.70;54.20;;;;;;5055992;28;20095;-72
2022/01/29 08:18:45;;;;;;;2.30;1.35;;;21.80;56.30;;;;;;5055738;28;20065;-72
2022/01/29 08:21:15;;;;;;;2.60;1.85;;;21.80;58.30;;;;;;5055635;28;20095;-73
2022/01/29 08:23:42;;;;;;;2.47;1.88;;;21.70;61.20;;;;;;5052524;28;20045;-73
2022/01/29 08:26:09;;;;;;;5.15;1.73;;;21.80;58.20;;;;;;5055041;28;20037;-71
2022/01/29 08:28:35;;;;;;;2.83;1.35;;;21.70;58.50;;;;;;5055373;28;20049;-70
2022/01/29 08:31:01;;;;;;;3.22;1.70;;;21.70;57.80;;;;;;5056038;28;20034;-71
2022/01/29 08:33:27;;;;;;;3.08;1.80;;;21.80;58.10;;;;;;5055976;28;20041;-71
2022/01/29 08:35:54;;;;;;;2.75;1.15;;;21.80;58.20;;;;;;5055560;28;20041;-70
2022/01/29 08:38:21;;;;;;;1.55;1.10;;;21.70;58.50;;;;;;5055589;28;20037;-70
2022/01/29 08:40:47;;;;;;;4.15;1.48;;;21.60;58.40;;;;;;5055058;28;20045;-72
2022/01/29 08:43:13;;;;;;;1.50;1.30;;;21.60;57.60;;;;;;5055665;28;20061;-74
2022/01/29 08:45:40;;;;;;;3.42;1.63;;;21.70;55.90;;;;;;5054811;28;20041;-72
2022/01/29 08:48:06;;;;;;;3.38;1.23;;;21.70;57.70;;;;;;5055402;28;20112;-73
2022/01/29 08:50:32;;;;;;;2.45;1.27;;;21.50;57.50;;;;;;5055344;28;20128;-72
2022/01/29 08:52:58;;;;;;;0.68;0.68;;;21.50;55.70;;;;;;5055806;28;20037;-74
2022/01/29 08:55:25;;;;;;;1.85;1.45;;;21.50;57.20;;;;;;5055645;28;20097;-73
2022/01/29 08:57:51;;;;;;;1.98;1.33;;;21.70;55.50;;;;;;5055327;28;20069;-72
2022/01/29 09:00:18;;;;;;;1.60;1.08;;;21.60;56.10;;;;;;5055487;28;20046;-74
2022/01/29 09:02:44;;;;;;;1.77;1.25;;;21.60;57.50;;;;;;5055474;28;20041;-72
2022/01/29 09:05:12;;;;;;;1.17;0.80;;;21.60;58.10;;;;;;5055399;28;20033;-72
2022/01/29 09:07:38;;;;;;;1.38;0.82;;;21.70;57.60;;;;;;5055433;28;20041;-70
2022/01/29 09:10:05;;;;;;;3.67;1.02;;;21.60;55.80;;;;;;5055266;28;20105;-69
2022/01/29 09:12:31;;;;;;;2.17;1.00;;;21.70;52.60;;;;;;5055347;28;20037;-69
2022/01/29 09:14:57;;;;;;;1.88;1.52;;;21.70;49.40;;;;;;5054799;28;20034;-69
2022/01/29 09:17:28;;;;;;;3.92;0.95;;;21.80;47.50;;;;;;5054801;28;20057;-72
2022/01/29 09:19:54;;;;;;;3.58;1.55;;;21.80;39.30;;;;;;5058529;28;20045;-71
2022/01/29 09:22:20;;;;;;;2.13;1.48;;;21.50;38.60;;;;;;5055475;28;20041;-72
2022/01/29 09:24:46;;;;;;;5.07;2.22;;;21.40;41.60;;;;;;5039264;28;20045;-72
2022/01/29 09:27:12;;;;;;;3.08;1.50;;;21.30;38.90;;;;;;5039095;28;20101;-72
2022/01/29 09:29:38;;;;;;;1.80;1.33;;;21.30;43.20;;;;;;5038880;28;20042;-71
2022/01/29 09:32:06;;;;;;;4.03;1.20;;;21.40;43.50;;;;;;5037870;28;20042;-72
2022/01/29 09:34:32;;;;;;;7.43;1.75;;;21.40;43.60;;;;;;5038810;28;20045;-73
2022/01/29 09:36:58;;;;;;;3.80;2.00;;;21.40;45.20;;;;;;5038750;28;20084;-73
2022/01/29 09:39:24;;;;;;;9.02;1.92;;;21.40;46.50;;;;;;5038728;28;20046;-73
2022/01/29 09:41:50;;;;;;;3.65;1.40;;;21.60;47.30;;;;;;5038631;28;20064;-73
2022/01/29 09:44:16;;;;;;;4.03;2.47;;;21.50;42.70;;;;;;5037685;28;20097;-73
2022/01/29 09:46:45;;;;;;;22.83;20.52;;;21.50;41.80;;;;;;5038053;28;20046;-74
2022/01/29 09:49:12;;;;;;;6.43;2.22;;;21.60;41.80;;;;;;5030805;28;20041;-73
2022/01/29 09:51:39;;;;;;;2.53;1.70;;;21.70;42.60;;;;;;5057060;28;20060;-72
2022/01/29 09:54:05;;;;;;;1.67;1.05;;;21.70;37.20;;;;;;5058071;28;20059;-73
2022/01/29 09:56:33;;;;;;;6.05;1.52;;;21.80;50.50;;;;;;5058549;28;20045;-74
2022/01/29 09:58:59;;;;;;;4.32;1.55;;;22.10;53.60;;;;;;5058614;28;20045;-73
2022/01/29 10:01:25;;;;;;;4.38;1.58;;;22.40;47.50;;;;;;5057920;28;20041;-73
2022/01/29 10:04:04;;;;;;;1.40;1.15;;;22.50;43.90;;;;;;5058010;28;20045;-72
2022/01/29 10:06:31;;;;;;;3.60;1.38;;;22.60;46.10;;;;;;5056834;28;20033;-72
2022/01/29 10:08:59;;;;;;;2.83;1.55;;;22.70;45.00;;;;;;5058194;28;20064;-71
2022/01/29 10:11:27;;;;;;;3.10;1.30;;;22.80;44.70;;;;;;5058065;28;20068;-72
2022/01/29 10:13:59;;;;;;;1.92;1.40;;;22.80;43.80;;;;;;5057748;28;20030;-73
2022/01/29 10:16:27;;;;;;;2.17;1.33;;;22.80;44.30;;;;;;5055999;28;20035;-72
2022/01/29 10:19:16;;;;;;;2.92;1.10;;;23.00;46.40;;;;;;5040431;28;20061;-71
2022/01/29 10:21:46;;;;;;;7.20;1.80;;;23.00;43.30;;;;;;5057739;28;20073;-72
2022/01/29 10:24:15;;;;;;;4.22;1.67;;;23.00;44.00;;;;;;5057848;28;20076;-72
2022/01/29 10:26:46;;;;;;;2.65;1.50;;;23.00;39.70;;;;;;5040858;28;20072;-72
2022/01/29 10:29:20;;;;;;;3.90;1.25;;;23.20;35.40;;;;;;5057180;28;20046;-73
2022/01/29 10:31:50;;;;;;;0.82;0.82;;;23.10;40.90;;;;;;5057703;28;20065;-73
2022/01/29 10:34:34;;;;;;;2.75;1.25;;;23.20;47.90;;;;;;5057859;28;20042;-72
2022/01/29 10:37:29;;;;;;;3.75;1.52;;;23.10;46.50;;;;;;5057865;28;20045;-72
2022/01/29 10:39:58;;;;;;;2.45;1.23;;;23.00;42.10;;;;;;5057407;28;20073;-71
2022/01/29 10:42:26;;;;;;;4.13;1.45;;;23.00;42.90;;;;;;5057497;28;20049;-71
2022/01/29 10:45:02;;;;;;;3.20;1.35;;;22.90;45.80;;;;;;5057752;28;20041;-73
2022/01/29 10:47:31;;;;;;;1.75;1.20;;;22.90;49.20;;;;;;5057570;28;20041;-72
2022/01/29 10:50:02;;;;;;;4.97;1.55;;;22.80;45.60;;;;;;5057444;28;20045;-71
2022/01/29 10:52:35;;;;;;;2.72;1.15;;;22.70;47.40;;;;;;5057064;28;20048;-74
2022/01/29 10:55:07;;;;;;;1.33;0.95;;;22.80;49.10;;;;;;5057535;28;20042;-72
2022/01/29 10:57:54;;;;;;;2.70;1.35;;;22.70;45.50;;;;;;5057500;28;20098;-72
2022/01/29 11:00:23;;;;;;;2.08;1.35;;;23.10;46.10;;;;;;5056927;28;20053;-74
2022/01/29 11:02:50;;;;;;;1.85;1.00;;;23.20;40.90;;;;;;5056983;28;20033;-76
2022/01/29 11:05:16;;;;;;;1.95;1.33;;;23.20;41.00;;;;;;5053334;28;20051;-71
2022/01/29 11:07:46;;;;;;;1.83;0.98;;;23.30;32.50;;;;;;5057174;28;20042;-73
2022/01/29 11:10:12;;;;;;;2.60;1.25;;;23.20;33.90;;;;;;5056483;28;20085;-72
2022/01/29 11:12:44;;;;;;;1.45;0.80;;;23.00;45.60;;;;;;5056905;28;20042;-74
2022/01/29 11:15:10;;;;;;;2.05;0.73;;;23.10;46.70;;;;;;5057168;28;20041;-73
2022/01/29 11:17:37;;;;;;;1.08;0.73;;;23.10;47.00;;;;;;5055899;28;20068;-73
2022/01/29 11:20:04;;;;;;;0.70;0.70;;;23.00;47.40;;;;;;5056870;28;20042;-73
2022/01/29 11:22:38;;;;;;;0.95;0.60;;;22.90;49.50;;;;;;5051755;28;20033;-73
2022/01/29 11:25:27;;;;;;;0.80;0.68;;;23.00;50.40;;;;;;5036106;28;20046;-73
2022/01/29 11:28:13;;;;;;;0.70;0.60;;;22.90;51.20;;;;;;5037159;28;20064;-73
2022/01/29 11:30:46;;;;;;;2.40;0.90;;;22.90;50.10;;;;;;5036627;28;20030;-72
2022/01/29 11:33:12;;;;;;;1.92;1.33;;;22.90;49.90;;;;;;5036793;28;20049;-72
2022/01/29 11:35:56;;;;;;;2.97;0.95;;;22.90;50.20;;;;;;5036720;28;20053;-73
2022/01/29 11:38:31;;;;;;;1.73;0.50;;;22.70;48.70;;;;;;5036717;28;20069;-71
2022/01/29 11:41:03;;;;;;;2.15;0.80;;;22.70;51.20;;;;;;5036028;28;20053;-73
2022/01/29 11:43:37;;;;;;;2.25;1.40;;;22.70;49.70;;;;;;5036626;28;20045;-74
2022/01/29 11:46:30;;;;;;;3.42;1.48;;;22.70;48.10;;;;;;5036472;28;20034;-73
2022/01/29 11:48:59;;;;;;;6.10;1.13;;;22.60;49.20;;;;;;5036589;28;20030;-73
2022/01/29 11:51:40;;;;;;;2.15;1.25;;;22.60;49.40;;;;;;5036313;28;20065;-74
2022/01/29 11:54:07;;;;;;;3.08;1.80;;;22.60;51.20;;;;;;5035428;28;20057;-72
2022/01/29 11:56:40;;;;;;;3.70;1.63;;;22.60;51.90;;;;;;5036448;28;20054;-75
2022/01/29 11:59:24;;;;;;;3.15;1.85;;;22.60;52.20;;;;;;5036352;28;20045;-74
2022/01/29 12:01:53;;;;;;;2.25;1.25;;;22.60;52.50;;;;;;5036471;28;20113;-75
2022/01/29 12:04:22;;;;;;;2.80;1.25;;;22.60;52.80;;;;;;5019200;28;20045;-75
2022/01/29 12:09:47;;;;;;;2.13;1.27;;;22.50;52.60;;;;;;5035728;28;20064;-73
2022/01/29 12:12:18;;;;;;;2.42;1.10;;;22.50;52.80;;;;;;5035959;28;20038;-72
2022/01/29 12:14:49;;;;;;;1.40;1.08;;;22.40;52.40;;;;;;5055764;28;20037;-72
2022/01/29 12:17:38;;;;;;;0.82;0.82;;;22.30;51.50;;;;;;5055609;28;20049;-72
2022/01/29 12:20:06;;;;;;;1.35;0.80;;;22.50;51.30;;;;;;5055473;28;20045;-72
2022/01/29 12:22:35;;;;;;;2.15;1.10;;;22.40;53.90;;;;;;5055579;28;20112;-72
2022/01/29 12:25:04;;;;;;;1.33;0.82;;;22.40;51.40;;;;;;5055712;28;20057;-72
2022/01/29 12:27:41;;;;;;;2.15;0.98;;;22.50;52.90;;;;;;5055222;28;20097;-71
2022/01/29 12:30:09;;;;;;;2.55;0.88;;;22.60;53.40;;;;;;5054755;28;20060;-73
2022/01/29 12:32:35;;;;;;;2.67;0.98;;;22.50;52.50;;;;;;5054302;28;20057;-72
2022/01/29 12:35:03;;;;;;;1.38;1.10;;;22.40;48.30;;;;;;5055337;28;20040;-71
2022/01/29 12:37:30;;;;;;;3.65;1.10;;;22.40;51.80;;;;;;5055227;28;20064;-71
2022/01/29 12:40:06;;;;;;;1.23;0.73;;;22.40;53.60;;;;;;5055227;28;20041;-72
2022/01/29 12:42:46;;;;;;;2.15;1.20;;;22.40;53.10;;;;;;5055100;28;20044;-72
2022/01/29 12:45:13;;;;;;;1.60;1.23;;;22.40;52.30;;;;;;5055067;28;20056;-73
2022/01/29 12:47:39;;;;;;;1.52;1.10;;;22.30;52.00;;;;;;5054682;28;20068;-72
2022/01/29 12:50:05;;;;;;;1.98;1.13;;;22.30;54.10;;;;;;5055499;28;20045;-72
2022/01/29 12:52:32;;;;;;;2.03;1.25;;;22.20;54.20;;;;;;5056638;28;20046;-73
2022/01/29 12:55:01;;;;;;;3.47;1.00;;;22.10;52.70;;;;;;5059522;28;20041;-72
2022/01/29 12:57:48;;;;;;;1.70;1.20;;;22.00;51.70;;;;;;5059747;28;20053;-72
2022/01/29 13:00:19;;;;;;;1.67;1.10;;;22.00;54.10;;;;;;5059715;28;20071;-71
2022/01/29 13:02:48;;;;;;;1.70;1.05;;;21.80;50.80;;;;;;5059390;28;20095;-71
2022/01/29 13:05:15;;;;;;;3.20;1.27;;;21.70;51.40;;;;;;5059644;28;20041;-72